Time;durP1;ratioP1;P1;durP2;ratioP2;P2;SDS_P1;SDS_P2;PMS_P1;PMS_P2;Temp;Humidity;BMP_temperature;BMP_pressure;BME280_temperature;BME280_humidity;BME280_pressure;Samples;Min_cycle;Max_cycle;Signal;HPM_P1;HPM_P2
2023/04/08 00:00:08;;;;;;;14.70;13.20;;;;;;;;;;4867923;29;20025;-77
2023/04/08 00:02:34;;;;;;;13.57;12.13;;;;;;;;;;4868178;29;20028;-76
2023/04/08 00:04:59;;;;;;;15.23;13.15;;;;;;;;;;4868882;29;20025;-76
2023/04/08 00:07:24;;;;;;;14.30;12.50;;;;;;;;;;4868107;29;20108;-76
2023/04/08 00:09:50;;;;;;;16.55;14.43;;;;;;;;;;4867973;29;20077;-76
2023/04/08 00:12:15;;;;;;;19.42;15.13;;;;;;;;;;4867398;29;20852;-76
2023/04/08 00:14:40;;;;;;;19.15;14.35;;;;;;;;;;4868179;29;20021;-76
2023/04/08 00:17:06;;;;;;;14.98;13.40;;;;;;;;;;4866225;29;20085;-77
2023/04/08 00:19:32;;;;;;;18.08;15.48;;;;;;;;;;4868110;29;20510;-76
2023/04/08 00:21:57;;;;;;;16.15;13.68;;;;;;;;;;4868035;29;20029;-76
2023/04/08 00:24:24;;;;;;;15.68;13.07;;;;;;;;;;4866503;29;20027;-77
2023/04/08 00:26:50;;;;;;;15.30;13.70;;;;;;;;;;4867880;29;20059;-77
2023/04/08 00:29:15;;;;;;;15.73;13.85;;;;;;;;;;4866586;29;20103;-77
2023/04/08 00:31:40;;;;;;;14.45;12.68;;;;;;;;;;4868108;29;20048;-76
2023/04/08 00:34:06;;;;;;;13.07;11.85;;;;;;;;;;4865914;29;20092;-77
2023/04/08 00:36:31;;;;;;;14.93;13.20;;;;;;;;;;4866428;29;20048;-76
2023/04/08 00:38:56;;;;;;;12.63;11.32;;;;;;;;;;4867609;29;20021;-77
2023/04/08 00:41:22;;;;;;;12.50;11.20;;;;;;;;;;4866446;29;20033;-77
2023/04/08 00:43:47;;;;;;;12.85;11.65;;;;;;;;;;4866822;29;20128;-77
2023/04/08 00:46:12;;;;;;;14.75;11.57;;;;;;;;;;4865702;29;20065;-77
2023/04/08 00:48:37;;;;;;;14.20;12.80;;;;;;;;;;4866688;29;20667;-76
2023/04/08 00:51:03;;;;;;;13.05;11.85;;;;;;;;;;4866958;29;20040;-77
2023/04/08 00:53:29;;;;;;;14.13;11.75;;;;;;;;;;4865863;29;20025;-76
2023/04/08 00:55:54;;;;;;;15.05;12.38;;;;;;;;;;4867198;29;20080;-77
2023/04/08 00:58:20;;;;;;;18.33;13.32;;;;;;;;;;4867711;29;20051;-77
2023/04/08 01:00:57;;;;;;;12.63;11.38;;;;;;;;;;4865108;29;20021;-77
2023/04/08 01:03:34;;;;;;;13.63;12.30;;;;;;;;;;4866102;29;20085;-77
2023/04/08 01:06:10;;;;;;;17.55;13.85;;;;;;;;;;4863719;29;20043;-77
2023/04/08 01:08:37;;;;;;;16.20;13.77;;;;;;;;;;4867372;29;20127;-77
2023/04/08 01:11:03;;;;;;;15.13;12.35;;;;;;;;;;4867299;29;20053;-77
2023/04/08 01:13:30;;;;;;;16.13;14.43;;;;;;;;;;4865516;29;20087;-77
2023/04/08 01:15:55;;;;;;;17.65;14.98;;;;;;;;;;4867599;29;20017;-77
2023/04/08 01:18:21;;;;;;;17.63;14.48;;;;;;;;;;4865670;29;21026;-77
2023/04/08 01:20:46;;;;;;;20.23;15.30;;;;;;;;;;4866123;29;20507;-77
2023/04/08 01:23:15;;;;;;;16.80;15.07;;;;;;;;;;4867394;29;20029;-77
2023/04/08 01:25:53;;;;;;;16.48;14.77;;;;;;;;;;4867711;29;20029;-76
2023/04/08 01:28:19;;;;;;;18.38;14.82;;;;;;;;;;4867210;29;20021;-77
2023/04/08 01:30:46;;;;;;;16.23;13.82;;;;;;;;;;4865928;29;20035;-77
2023/04/08 01:33:12;;;;;;;18.75;14.45;;;;;;;;;;4870446;29;20495;-77
2023/04/08 01:35:38;;;;;;;15.60;13.95;;;;;;;;;;4869747;29;20124;-77
2023/04/08 01:38:05;;;;;;;17.30;13.68;;;;;;;;;;4871228;29;20112;-77
2023/04/08 01:40:31;;;;;;;15.23;13.73;;;;;;;;;;4869521;29;20728;-77
2023/04/08 01:42:57;;;;;;;14.48;12.88;;;;;;;;;;4870703;29;20017;-77
2023/04/08 01:45:23;;;;;;;17.00;15.25;;;;;;;;;;4868412;29;20077;-77
2023/04/08 01:47:49;;;;;;;16.50;14.80;;;;;;;;;;4869304;29;20570;-77
2023/04/08 01:50:15;;;;;;;15.98;14.38;;;;;;;;;;4870894;29;20017;-77
2023/04/08 01:52:42;;;;;;;16.17;14.15;;;;;;;;;;4868780;29;20124;-77
2023/04/08 01:55:08;;;;;;;15.73;14.02;;;;;;;;;;4870134;29;20037;-77
2023/04/08 01:57:35;;;;;;;15.48;13.65;;;;;;;;;;4869448;29;20471;-77
2023/04/08 02:00:03;;;;;;;17.38;15.32;;;;;;;;;;4869083;29;20024;-76
2023/04/08 02:02:28;;;;;;;19.60;16.17;;;;;;;;;;4868051;29;20029;-77
2023/04/08 02:04:54;;;;;;;19.15;14.40;;;;;;;;;;4868789;29;20420;-77
2023/04/08 02:07:19;;;;;;;15.73;14.07;;;;;;;;;;4869797;29;20025;-76
2023/04/08 02:09:45;;;;;;;15.43;12.93;;;;;;;;;;4869812;29;20037;-77
2023/04/08 02:12:10;;;;;;;15.45;14.02;;;;;;;;;;4869466;29;20040;-77
2023/04/08 02:14:36;;;;;;;14.55;13.07;;;;;;;;;;4868320;29;20032;-77
2023/04/08 02:17:07;;;;;;;16.23;14.00;;;;;;;;;;4869820;29;20040;-77
2023/04/08 02:19:53;;;;;;;15.23;13.65;;;;;;;;;;4869119;29;20845;-77
2023/04/08 02:22:28;;;;;;;15.60;13.93;;;;;;;;;;4862961;29;20029;-77
2023/04/08 02:24:54;;;;;;;15.27;13.68;;;;;;;;;;4869268;29;20033;-77
2023/04/08 02:27:20;;;;;;;15.20;13.60;;;;;;;;;;4869965;29;20116;-77
2023/04/08 02:29:46;;;;;;;16.02;14.35;;;;;;;;;;4869083;29;20085;-77
2023/04/08 02:32:12;;;;;;;14.95;13.45;;;;;;;;;;4868915;29;20044;-77
2023/04/08 02:34:39;;;;;;;15.90;14.18;;;;;;;;;;4869092;29;20484;-78
2023/04/08 02:37:06;;;;;;;14.75;13.13;;;;;;;;;;4869523;29;20021;-77
2023/04/08 02:39:31;;;;;;;15.05;13.45;;;;;;;;;;4869418;29;20053;-77
2023/04/08 02:41:57;;;;;;;17.77;14.55;;;;;;;;;;4871902;29;20017;-77
2023/04/08 02:44:22;;;;;;;16.17;14.52;;;;;;;;;;4874159;29;20049;-77
2023/04/08 02:46:48;;;;;;;14.32;12.82;;;;;;;;;;4873036;29;20059;-77
2023/04/08 02:49:13;;;;;;;15.90;14.27;;;;;;;;;;4872780;29;20036;-77
2023/04/08 02:51:39;;;;;;;14.55;13.05;;;;;;;;;;4872533;29;20064;-77
2023/04/08 02:54:04;;;;;;;15.00;12.80;;;;;;;;;;4872281;29;20112;-77
2023/04/08 02:56:29;;;;;;;19.65;13.50;;;;;;;;;;4872143;29;20866;-77
2023/04/08 02:58:55;;;;;;;16.50;14.77;;;;;;;;;;4871629;29;20029;-77
2023/04/08 03:01:20;;;;;;;15.57;13.32;;;;;;;;;;4870321;29;20029;-77
2023/04/08 03:03:45;;;;;;;13.02;11.68;;;;;;;;;;4870617;29;20112;-77
2023/04/08 03:06:11;;;;;;;14.20;12.88;;;;;;;;;;4872333;29;20029;-77
2023/04/08 03:08:36;;;;;;;16.48;14.77;;;;;;;;;;4871605;29;20023;-77
2023/04/08 03:11:01;;;;;;;16.55;13.70;;;;;;;;;;4871163;29;20040;-77
2023/04/08 03:13:28;;;;;;;14.35;12.98;;;;;;;;;;4865377;29;20858;-76
2023/04/08 03:15:53;;;;;;;14.30;12.90;;;;;;;;;;4867897;29;20043;-76
2023/04/08 03:18:20;;;;;;;13.25;12.00;;;;;;;;;;4868538;29;20472;-77
2023/04/08 03:20:45;;;;;;;13.00;11.75;;;;;;;;;;4867528;29;20601;-77
2023/04/08 03:23:11;;;;;;;13.10;11.85;;;;;;;;;;4869652;29;20044;-76
2023/04/08 03:25:36;;;;;;;14.70;12.93;;;;;;;;;;4869667;29;20025;-77
2023/04/08 03:28:01;;;;;;;17.20;15.35;;;;;;;;;;4870851;29;20068;-77
2023/04/08 03:30:26;;;;;;;15.63;14.02;;;;;;;;;;4868938;29;20035;-77
2023/04/08 03:32:52;;;;;;;16.45;14.57;;;;;;;;;;4868292;29;20046;-77
2023/04/08 03:35:17;;;;;;;16.50;14.77;;;;;;;;;;4868916;29;20046;-77
2023/04/08 03:37:42;;;;;;;14.70;13.10;;;;;;;;;;4869087;29;20037;-77
2023/04/08 03:40:08;;;;;;;14.07;12.65;;;;;;;;;;4867838;29;20035;-77
2023/04/08 03:42:34;;;;;;;14.75;13.35;;;;;;;;;;4869242;29;20017;-77
2023/04/08 03:44:59;;;;;;;12.68;11.40;;;;;;;;;;4868727;29;20563;-77
2023/04/08 03:47:24;;;;;;;14.40;13.00;;;;;;;;;;4868527;29;20021;-76
2023/04/08 03:49:51;;;;;;;14.35;12.63;;;;;;;;;;4869742;29;20427;-77
2023/04/08 03:52:17;;;;;;;15.25;11.90;;;;;;;;;;4870075;29;20503;-76
2023/04/08 03:54:42;;;;;;;15.57;13.35;;;;;;;;;;4866962;29;20089;-77
2023/04/08 03:57:07;;;;;;;13.07;11.82;;;;;;;;;;4868656;29;20606;-77
2023/04/08 03:59:33;;;;;;;16.27;13.35;;;;;;;;;;4868685;29;20100;-76
2023/04/08 04:01:59;;;;;;;14.48;13.13;;;;;;;;;;4867753;29;20028;-76
2023/04/08 04:04:24;;;;;;;14.20;12.75;;;;;;;;;;4869612;29;20033;-77
2023/04/08 04:06:49;;;;;;;14.30;12.90;;;;;;;;;;4870038;29;20029;-77
2023/04/08 04:09:15;;;;;;;13.65;12.25;;;;;;;;;;4867256;29;20398;-77
2023/04/08 04:11:40;;;;;;;13.93;12.32;;;;;;;;;;4868519;29;20029;-77
2023/04/08 04:14:06;;;;;;;14.38;12.98;;;;;;;;;;4867332;29;20502;-77
2023/04/08 04:16:31;;;;;;;14.80;13.25;;;;;;;;;;4869193;29;20033;-77
2023/04/08 04:18:56;;;;;;;13.80;11.82;;;;;;;;;;4867893;29;20089;-77
2023/04/08 04:21:22;;;;;;;13.23;11.93;;;;;;;;;;4868554;29;20415;-77
2023/04/08 04:23:47;;;;;;;15.30;13.70;;;;;;;;;;4868086;29;20085;-76
2023/04/08 04:26:12;;;;;;;18.83;16.35;;;;;;;;;;4867552;29;20021;-76
2023/04/08 04:28:37;;;;;;;19.63;15.75;;;;;;;;;;4868578;29;20048;-75
2023/04/08 04:31:03;;;;;;;20.40;17.20;;;;;;;;;;4869740;29;20025;-77
2023/04/08 04:33:28;;;;;;;21.00;18.38;;;;;;;;;;4870248;29;20013;-77
2023/04/08 04:35:54;;;;;;;24.45;19.30;;;;;;;;;;4870323;29;20478;-76
2023/04/08 04:38:20;;;;;;;18.02;16.25;;;;;;;;;;4865537;29;21121;-76
2023/04/08 04:40:45;;;;;;;19.88;16.20;;;;;;;;;;4866213;29;20524;-76
2023/04/08 04:43:10;;;;;;;16.05;14.32;;;;;;;;;;4867404;29;20099;-76
2023/04/08 04:45:36;;;;;;;17.58;15.77;;;;;;;;;;4868633;29;20072;-75
2023/04/08 04:48:02;;;;;;;18.92;14.80;;;;;;;;;;4866177;29;21049;-76
2023/04/08 04:50:27;;;;;;;18.25;14.93;;;;;;;;;;4866697;29;20029;-76
2023/04/08 04:52:53;;;;;;;18.52;15.15;;;;;;;;;;4865484;29;20491;-76
2023/04/08 04:55:18;;;;;;;14.70;13.23;;;;;;;;;;4866671;29;20025;-76
2023/04/08 04:57:43;;;;;;;16.25;14.23;;;;;;;;;;4863767;29;20041;-76
2023/04/08 05:00:09;;;;;;;13.35;12.13;;;;;;;;;;4865082;29;20021;-76
2023/04/08 05:02:34;;;;;;;21.85;14.80;;;;;;;;;;4866362;29;20203;-76
2023/04/08 05:05:00;;;;;;;15.90;13.88;;;;;;;;;;4865810;29;20047;-76
2023/04/08 05:07:25;;;;;;;15.68;13.50;;;;;;;;;;4869680;29;20025;-76
2023/04/08 05:09:50;;;;;;;15.27;13.48;;;;;;;;;;4869547;29;20488;-76
2023/04/08 05:12:15;;;;;;;16.80;15.00;;;;;;;;;;4869709;29;20513;-76
2023/04/08 05:14:41;;;;;;;16.70;14.93;;;;;;;;;;4869585;29;20029;-76
2023/04/08 05:17:06;;;;;;;12.02;10.73;;;;;;;;;;4870177;29;20044;-77
2023/04/08 05:19:31;;;;;;;18.75;16.80;;;;;;;;;;4869744;29;20036;-76
2023/04/08 05:21:57;;;;;;;17.20;14.85;;;;;;;;;;4868724;29;20043;-77
2023/04/08 05:24:22;;;;;;;18.60;15.48;;;;;;;;;;4868005;29;20029;-77
2023/04/08 05:26:51;;;;;;;19.52;15.10;;;;;;;;;;4867701;29;20495;-77
2023/04/08 05:29:17;;;;;;;16.30;14.60;;;;;;;;;;4878625;29;20032;-80
2023/04/08 05:31:42;;;;;;;18.15;14.27;;;;;;;;;;4879955;29;20043;-81
2023/04/08 05:34:07;;;;;;;14.45;12.95;;;;;;;;;;4890030;29;20116;-80
2023/04/08 05:36:33;;;;;;;15.55;13.93;;;;;;;;;;4875252;29;20025;-80
2023/04/08 05:38:58;;;;;;;16.80;14.05;;;;;;;;;;4879036;29;20075;-80
2023/04/08 05:41:23;;;;;;;16.45;14.90;;;;;;;;;;4885873;29;20081;-81
2023/04/08 05:43:48;;;;;;;14.65;13.23;;;;;;;;;;4874414;29;20031;-80
2023/04/08 05:46:14;;;;;;;17.58;14.02;;;;;;;;;;4864688;29;20524;-81
2023/04/08 05:48:39;;;;;;;14.85;12.65;;;;;;;;;;4877180;29;20035;-81
2023/04/08 05:51:12;;;;;;;13.88;12.45;;;;;;;;;;4887506;29;20040;-82
2023/04/08 05:53:37;;;;;;;13.70;12.27;;;;;;;;;;4884509;29;20027;-83
2023/04/08 05:56:02;;;;;;;13.60;11.43;;;;;;;;;;4891473;29;20534;-81
2023/04/08 05:58:27;;;;;;;12.85;11.63;;;;;;;;;;4889065;29;20032;-81
2023/04/08 06:00:54;;;;;;;13.80;12.40;;;;;;;;;;4889453;29;20040;-81
2023/04/08 06:03:19;;;;;;;14.45;12.55;;;;;;;;;;4884716;29;20035;-81
2023/04/08 06:05:45;;;;;;;14.25;12.95;;;;;;;;;;4873504;29;20059;-81
2023/04/08 06:08:10;;;;;;;15.20;13.60;;;;;;;;;;4877203;29;20061;-82
2023/04/08 06:10:35;;;;;;;14.27;12.90;;;;;;;;;;4868092;29;20041;-81
2023/04/08 06:13:01;;;;;;;15.40;13.95;;;;;;;;;;4879284;29;20041;-81
2023/04/08 06:15:26;;;;;;;14.68;13.35;;;;;;;;;;4889377;29;20085;-81
2023/04/08 06:17:52;;;;;;;14.98;13.48;;;;;;;;;;4881571;29;20224;-79
2023/04/08 06:20:17;;;;;;;15.90;14.20;;;;;;;;;;4874804;29;20021;-79
2023/04/08 06:22:42;;;;;;;13.52;12.02;;;;;;;;;;4868092;29;20033;-76
2023/04/08 06:25:08;;;;;;;16.37;13.33;;;;;;;;;;4868428;29;20586;-77
2023/04/08 06:27:33;;;;;;;15.90;14.25;;;;;;;;;;4870741;29;20266;-80
2023/04/08 06:29:58;;;;;;;15.10;13.50;;;;;;;;;;4873330;29;20044;-79
2023/04/08 06:32:24;;;;;;;16.15;14.15;;;;;;;;;;4874564;29;20043;-78
2023/04/08 06:34:49;;;;;;;16.15;14.45;;;;;;;;;;4871152;29;20116;-76
2023/04/08 06:37:15;;;;;;;17.67;13.63;;;;;;;;;;4862654;29;20081;-80
2023/04/08 06:39:40;;;;;;;15.73;14.15;;;;;;;;;;4864672;29;20017;-78
2023/04/08 06:42:05;;;;;;;15.43;13.95;;;;;;;;;;4851944;29;20149;-79
2023/04/08 06:44:31;;;;;;;16.40;14.70;;;;;;;;;;4861292;29;20029;-79
2023/04/08 06:46:56;;;;;;;13.77;12.30;;;;;;;;;;4868287;29;20923;-78
2023/04/08 06:49:21;;;;;;;16.33;14.73;;;;;;;;;;4873101;29;20536;-77
2023/04/08 06:51:47;;;;;;;16.20;14.63;;;;;;;;;;4873679;29;20136;-78
2023/04/08 06:54:12;;;;;;;16.30;11.48;;;;;;;;;;4870814;29;20532;-78
2023/04/08 06:56:38;;;;;;;18.83;15.82;;;;;;;;;;4870585;29;20033;-79
2023/04/08 06:59:03;;;;;;;18.45;16.08;;;;;;;;;;4869279;29;20025;-80
2023/04/08 07:01:29;;;;;;;17.00;15.30;;;;;;;;;;4873629;29;20594;-81
2023/04/08 07:03:54;;;;;;;17.80;15.98;;;;;;;;;;4884854;29;20499;-82
2023/04/08 07:06:19;;;;;;;20.60;17.67;;;;;;;;;;4880488;29;20055;-81
2023/04/08 07:08:45;;;;;;;21.58;18.13;;;;;;;;;;4883387;29;20021;-80
2023/04/08 07:11:11;;;;;;;24.88;18.52;;;;;;;;;;4878844;29;20039;-80
2023/04/08 07:13:36;;;;;;;23.58;17.98;;;;;;;;;;4885567;29;20033;-81
2023/04/08 07:16:01;;;;;;;19.60;17.27;;;;;;;;;;4877155;29;20029;-82
2023/04/08 07:18:27;;;;;;;19.92;16.88;;;;;;;;;;4882962;29;20053;-83
2023/04/08 07:20:53;;;;;;;19.75;16.05;;;;;;;;;;4888520;29;20029;-82
2023/04/08 07:23:18;;;;;;;22.15;17.60;;;;;;;;;;4883429;29;20121;-81
2023/04/08 07:25:44;;;;;;;20.50;18.02;;;;;;;;;;4891870;29;20084;-82
2023/04/08 07:28:09;;;;;;;21.60;17.02;;;;;;;;;;4892958;29;20025;-83
2023/04/08 07:30:35;;;;;;;19.58;14.00;;;;;;;;;;4881776;29;20017;-83
2023/04/08 07:33:00;;;;;;;20.92;17.65;;;;;;;;;;4893418;29;20061;-82
2023/04/08 07:35:26;;;;;;;19.63;17.52;;;;;;;;;;4894242;29;20026;-82
2023/04/08 07:37:52;;;;;;;23.80;19.23;;;;;;;;;;4884897;29;20044;-85
2023/04/08 07:40:17;;;;;;;22.92;17.45;;;;;;;;;;4874411;29;20096;-82
2023/04/08 07:42:43;;;;;;;27.02;19.98;;;;;;;;;;4888983;29;20033;-84
2023/04/08 07:45:08;;;;;;;23.63;17.17;;;;;;;;;;4945764;23;20427;-81
2023/04/08 07:47:34;;;;;;;26.13;18.05;;;;;;;;;;4899689;29;20040;-82
2023/04/08 07:50:00;;;;;;;27.92;19.48;;;;;;;;;;4906229;29;20036;-83
2023/04/08 07:52:25;;;;;;;24.00;16.67;;;;;;;;;;4899885;29;20125;-78
2023/04/08 07:54:50;;;;;;;26.42;18.83;;;;;;;;;;4900768;29;20136;-79
2023/04/08 07:57:16;;;;;;;24.40;18.60;;;;;;;;;;4900576;29;20484;-82
2023/04/08 07:59:41;;;;;;;21.73;16.50;;;;;;;;;;4897771;29;20079;-79
2023/04/08 08:02:06;;;;;;;22.65;16.23;;;;;;;;;;4893152;29;20223;-77
2023/04/08 08:04:31;;;;;;;25.15;17.40;;;;;;;;;;4890381;29;20071;-80
2023/04/08 08:06:57;;;;;;;22.17;14.98;;;;;;;;;;4898791;29;20052;-79
2023/04/08 08:09:22;;;;;;;27.42;17.63;;;;;;;;;;4897034;29;20032;-77
2023/04/08 08:11:47;;;;;;;22.95;18.27;;;;;;;;;;4903736;29;20039;-79
2023/04/08 08:14:13;;;;;;;25.40;18.53;;;;;;;;;;4887878;29;20033;-82
2023/04/08 08:16:38;;;;;;;22.60;17.15;;;;;;;;;;4891409;29;20269;-80
2023/04/08 08:19:06;;;;;;;26.58;18.98;;;;;;;;;;4895051;29;20772;-79
2023/04/08 08:21:32;;;;;;;25.02;17.10;;;;;;;;;;4902729;29;20083;-81
2023/04/08 08:23:58;;;;;;;23.33;17.50;;;;;;;;;;4904323;29;20040;-81
2023/04/08 08:26:24;;;;;;;24.52;16.67;;;;;;;;;;4895332;29;20017;-81
2023/04/08 08:28:49;;;;;;;23.80;18.75;;;;;;;;;;4912965;29;20116;-80
2023/04/08 08:31:15;;;;;;;23.85;17.55;;;;;;;;;;4904538;29;20032;-81
2023/04/08 08:33:40;;;;;;;27.60;19.42;;;;;;;;;;4903213;29;20037;-80
2023/04/08 08:36:06;;;;;;;28.55;16.42;;;;;;;;;;4894694;29;20071;-81
2023/04/08 08:38:31;;;;;;;25.38;18.48;;;;;;;;;;4901459;29;20111;-83
2023/04/08 08:40:57;;;;;;;21.88;17.85;;;;;;;;;;4899461;29;20056;-80
2023/04/08 08:43:26;;;;;;;28.23;17.65;;;;;;;;;;4895030;29;20932;-81
2023/04/08 08:45:52;;;;;;;27.60;19.00;;;;;;;;;;4895175;29;20073;-82
2023/04/08 08:48:18;;;;;;;23.40;18.48;;;;;;;;;;4899182;29;20052;-81
2023/04/08 08:50:43;;;;;;;22.42;16.90;;;;;;;;;;4892546;29;20028;-81
2023/04/08 08:53:08;;;;;;;24.60;19.30;;;;;;;;;;4897376;29;20515;-79
2023/04/08 08:55:34;;;;;;;24.98;18.42;;;;;;;;;;4905591;29;20033;-81
2023/04/08 08:58:00;;;;;;;24.42;17.75;;;;;;;;;;4907742;29;20056;-80
2023/04/08 09:00:39;;;;;;;26.02;19.02;;;;;;;;;;4910649;29;20085;-80
2023/04/08 09:03:14;;;;;;;28.27;16.83;;;;;;;;;;4902738;29;20059;-81
2023/04/08 09:05:49;;;;;;;21.27;14.38;;;;;;;;;;4903476;29;20128;-78
2023/04/08 09:08:27;;;;;;;23.75;18.02;;;;;;;;;;4891547;29;20024;-78
2023/04/08 09:10:53;;;;;;;26.08;18.00;;;;;;;;;;4889849;29;20074;-81
2023/04/08 09:13:18;;;;;;;22.02;15.32;;;;;;;;;;4887463;29;20041;-82
2023/04/08 09:16:03;;;;;;;23.20;18.70;;;;;;;;;;4885399;29;20075;-81
2023/04/08 09:18:29;;;;;;;22.10;17.52;;;;;;;;;;4885677;29;20025;-79
2023/04/08 09:20:54;;;;;;;21.08;15.90;;;;;;;;;;4895641;29;20036;-78
2023/04/08 09:23:19;;;;;;;19.43;16.33;;;;;;;;;;4889449;29;20039;-80
2023/04/08 09:25:46;;;;;;;18.98;16.02;;;;;;;;;;4891044;29;20655;-81
2023/04/08 09:28:19;;;;;;;19.33;16.90;;;;;;;;;;4891338;29;20543;-79
2023/04/08 09:30:44;;;;;;;22.50;15.60;;;;;;;;;;4895894;29;20137;-79
2023/04/08 09:33:10;;;;;;;22.63;15.82;;;;;;;;;;4901518;29;20069;-82
2023/04/08 09:35:35;;;;;;;21.08;16.05;;;;;;;;;;4921565;29;20023;-83
2023/04/08 09:38:01;;;;;;;20.38;16.52;;;;;;;;;;4903351;29;20109;-81
2023/04/08 09:40:27;;;;;;;19.88;16.23;;;;;;;;;;4903883;29;20037;-81
2023/04/08 09:42:54;;;;;;;19.83;17.20;;;;;;;;;;4888748;29;20088;-79
2023/04/08 09:45:20;;;;;;;20.25;17.25;;;;;;;;;;4886798;29;20064;-78
2023/04/08 09:47:51;;;;;;;19.55;15.05;;;;;;;;;;4892458;29;20024;-80
2023/04/08 09:50:18;;;;;;;18.75;15.23;;;;;;;;;;4897041;29;20032;-81
2023/04/08 09:52:45;;;;;;;16.77;14.15;;;;;;;;;;4900725;29;20612;-81
2023/04/08 09:55:12;;;;;;;20.40;14.65;;;;;;;;;;4895503;29;20120;-82
2023/04/08 09:57:56;;;;;;;17.30;14.93;;;;;;;;;;4895924;29;20044;-79
2023/04/08 10:00:23;;;;;;;20.80;14.05;;;;;;;;;;4894477;29;20029;-78
2023/04/08 10:03:01;;;;;;;19.20;14.82;;;;;;;;;;4891086;29;20107;-77
2023/04/08 10:05:27;;;;;;;16.48;14.75;;;;;;;;;;4880087;29;20028;-80
2023/04/08 10:07:54;;;;;;;16.60;14.77;;;;;;;;;;4898551;29;20033;-81
2023/04/08 10:10:20;;;;;;;17.02;14.48;;;;;;;;;;4893155;29;21549;-80
2023/04/08 10:12:45;;;;;;;16.08;14.45;;;;;;;;;;4896906;29;20045;-81
2023/04/08 10:15:26;;;;;;;16.85;14.98;;;;;;;;;;4902052;29;20088;-81
2023/04/08 10:17:55;;;;;;;16.27;14.48;;;;;;;;;;4908038;29;20056;-80
2023/04/08 10:20:35;;;;;;;18.55;13.85;;;;;;;;;;4905697;29;20019;-81
2023/04/08 10:23:01;;;;;;;18.50;14.45;;;;;;;;;;4912828;29;20056;-81
2023/04/08 10:25:36;;;;;;;17.05;14.20;;;;;;;;;;4917175;29;20028;-82
2023/04/08 10:28:22;;;;;;;14.45;12.93;;;;;;;;;;4910056;29;20558;-82
2023/04/08 10:30:55;;;;;;;17.08;14.93;;;;;;;;;;4903325;29;20063;-80
2023/04/08 10:33:20;;;;;;;16.08;14.45;;;;;;;;;;4896622;29;20146;-80
2023/04/08 10:36:04;;;;;;;14.20;12.77;;;;;;;;;;4891769;29;20523;-81
2023/04/08 10:38:29;;;;;;;13.45;12.10;;;;;;;;;;4902207;29;20292;-81
2023/04/08 10:40:54;;;;;;;14.02;12.68;;;;;;;;;;4907765;29;20027;-82
2023/04/08 10:45:55;;;;;;;14.45;12.90;;;;;;;;;;5298361;23;20060;-80
2023/04/08 10:48:21;;;;;;;12.55;11.23;;;;;;;;;;5150557;23;20077;-79
2023/04/08 10:50:54;;;;;;;12.55;11.45;;;;;;;;;;4888716;29;20021;-80
2023/04/08 10:53:38;;;;;;;12.73;11.52;;;;;;;;;;4877925;29;20025;-80
2023/04/08 10:56:14;;;;;;;14.35;13.05;;;;;;;;;;4866563;29;20112;-83
2023/04/08 10:58:58;;;;;;;13.98;12.52;;;;;;;;;;4868212;29;20071;-84
2023/04/08 11:01:24;;;;;;;14.57;13.07;;;;;;;;;;4889643;29;20029;-80
2023/04/08 11:03:49;;;;;;;15.48;13.55;;;;;;;;;;4896423;29;20033;-79
2023/04/08 11:06:16;;;;;;;14.60;13.20;;;;;;;;;;4896922;29;20032;-80
2023/04/08 11:08:43;;;;;;;12.80;11.60;;;;;;;;;;4890464;29;20089;-82
2023/04/08 11:11:09;;;;;;;13.48;12.02;;;;;;;;;;4883340;29;20081;-82
2023/04/08 11:13:39;;;;;;;14.68;13.25;;;;;;;;;;4894577;29;20028;-81
2023/04/08 11:16:05;;;;;;;14.60;13.20;;;;;;;;;;4896772;29;20035;-81
2023/04/08 11:18:38;;;;;;;15.00;12.77;;;;;;;;;;4888569;29;20021;-83
2023/04/08 11:21:07;;;;;;;14.05;12.85;;;;;;;;;;4872880;29;20081;-79
2023/04/08 11:23:33;;;;;;;14.30;13.00;;;;;;;;;;4865810;29;20028;-76
2023/04/08 11:25:58;;;;;;;17.70;15.85;;;;;;;;;;4851955;29;20034;-77
2023/04/08 11:28:25;;;;;;;17.48;14.65;;;;;;;;;;4858466;29;20029;-75
2023/04/08 11:30:52;;;;;;;15.82;14.30;;;;;;;;;;4858619;29;20033;-76
2023/04/08 11:33:17;;;;;;;15.95;14.43;;;;;;;;;;4859631;29;20062;-76
2023/04/08 11:35:43;;;;;;;13.52;12.00;;;;;;;;;;4862081;29;20037;-76
2023/04/08 11:38:09;;;;;;;14.50;12.15;;;;;;;;;;4868826;29;20017;-75
2023/04/08 11:40:34;;;;;;;14.60;13.13;;;;;;;;;;4868682;29;20475;-78
2023/04/08 11:43:07;;;;;;;12.88;11.63;;;;;;;;;;4868995;29;20088;-76
2023/04/08 11:45:36;;;;;;;17.63;14.52;;;;;;;;;;4868552;29;20028;-76
2023/04/08 11:48:07;;;;;;;13.57;12.27;;;;;;;;;;4867811;29;20479;-77
2023/04/08 11:50:32;;;;;;;11.48;10.48;;;;;;;;;;4867526;29;20023;-76
2023/04/08 11:52:58;;;;;;;10.77;9.80;;;;;;;;;;4868393;29;20120;-77
2023/04/08 11:55:25;;;;;;;11.77;10.65;;;;;;;;;;4862096;29;20104;-76
2023/04/08 11:57:51;;;;;;;11.48;10.38;;;;;;;;;;4866820;29;20040;-76
2023/04/08 12:00:17;;;;;;;9.98;9.07;;;;;;;;;;4871664;29;20028;-77
2023/04/08 12:02:43;;;;;;;10.70;9.63;;;;;;;;;;4867168;29;20551;-76
2023/04/08 12:05:08;;;;;;;10.48;9.43;;;;;;;;;;4867990;29;20040;-77
2023/04/08 12:07:33;;;;;;;12.77;11.60;;;;;;;;;;4868272;29;20040;-78
2023/04/08 12:10:00;;;;;;;12.32;9.38;;;;;;;;;;4868417;29;20266;-77
2023/04/08 12:12:25;;;;;;;9.63;8.82;;;;;;;;;;4870034;29;20116;-78
2023/04/08 12:14:50;;;;;;;8.68;7.88;;;;;;;;;;4866848;29;20169;-78
2023/04/08 12:17:16;;;;;;;9.35;8.40;;;;;;;;;;4870337;29;20063;-78
2023/04/08 12:19:41;;;;;;;6.47;5.90;;;;;;;;;;4869129;29;20077;-79
2023/04/08 12:22:06;;;;;;;6.72;6.13;;;;;;;;;;4870477;29;20052;-78
2023/04/08 12:24:32;;;;;;;7.05;6.35;;;;;;;;;;4868653;29;20032;-78
2023/04/08 12:26:57;;;;;;;8.27;7.47;;;;;;;;;;4869718;29;20032;-77
2023/04/08 12:29:22;;;;;;;7.68;6.97;;;;;;;;;;4867062;29;20025;-78
2023/04/08 12:31:48;;;;;;;8.50;7.80;;;;;;;;;;4866283;29;20041;-77
2023/04/08 12:34:13;;;;;;;8.67;7.90;;;;;;;;;;4868594;29;20029;-76
2023/04/08 12:36:38;;;;;;;7.95;7.35;;;;;;;;;;4865812;29;20278;-77
2023/04/08 12:39:03;;;;;;;11.07;6.95;;;;;;;;;;4869028;29;20059;-77
2023/04/08 12:41:29;;;;;;;8.82;7.65;;;;;;;;;;4864514;29;20033;-76
2023/04/08 12:43:55;;;;;;;8.68;7.88;;;;;;;;;;4868497;29;20033;-79
2023/04/08 12:46:21;;;;;;;8.35;7.55;;;;;;;;;;4869141;29;20024;-77
2023/04/08 12:48:48;;;;;;;7.88;7.22;;;;;;;;;;4863636;29;20048;-78
2023/04/08 12:51:13;;;;;;;6.60;6.10;;;;;;;;;;4865554;29;20036;-77
2023/04/08 12:53:38;;;;;;;8.30;7.57;;;;;;;;;;4868466;29;20041;-77
2023/04/08 12:56:04;;;;;;;7.27;6.53;;;;;;;;;;4869377;29;20165;-78
2023/04/08 12:58:29;;;;;;;9.07;8.38;;;;;;;;;;4865871;29;20795;-78
2023/04/08 13:00:54;;;;;;;8.45;7.75;;;;;;;;;;4869417;29;20498;-78
2023/04/08 13:03:20;;;;;;;8.85;8.13;;;;;;;;;;4868665;29;20037;-78
2023/04/08 13:05:45;;;;;;;8.95;8.25;;;;;;;;;;4868958;29;20021;-78
2023/04/08 13:08:11;;;;;;;8.38;7.68;;;;;;;;;;4867503;29;20029;-78
2023/04/08 13:10:36;;;;;;;9.43;8.68;;;;;;;;;;4869214;29;20021;-79
2023/04/08 13:13:01;;;;;;;9.48;8.70;;;;;;;;;;4868621;29;20040;-77
2023/04/08 13:15:27;;;;;;;11.55;10.38;;;;;;;;;;4868232;29;20129;-78
2023/04/08 13:17:53;;;;;;;13.02;11.73;;;;;;;;;;4869444;29;20471;-78
2023/04/08 13:20:18;;;;;;;12.45;10.85;;;;;;;;;;4867307;29;20085;-77
2023/04/08 13:22:44;;;;;;;11.75;10.63;;;;;;;;;;4868242;29;20101;-78
2023/04/08 13:25:09;;;;;;;11.13;10.13;;;;;;;;;;4865996;29;20775;-78
2023/04/08 13:27:34;;;;;;;11.55;10.43;;;;;;;;;;4880654;29;20025;-77
2023/04/08 13:30:00;;;;;;;11.80;10.70;;;;;;;;;;4869952;29;20562;-77
2023/04/08 13:32:25;;;;;;;12.25;10.75;;;;;;;;;;4871828;29;20036;-78
2023/04/08 13:34:50;;;;;;;10.95;9.40;;;;;;;;;;4870563;29;20111;-77
2023/04/08 13:37:15;;;;;;;11.65;8.25;;;;;;;;;;4867549;29;20114;-76
2023/04/08 13:39:41;;;;;;;9.82;8.98;;;;;;;;;;4869620;29;20032;-77
2023/04/08 13:42:06;;;;;;;11.00;8.90;;;;;;;;;;4869919;29;20052;-78
2023/04/08 13:44:32;;;;;;;8.82;8.02;;;;;;;;;;4871920;29;20282;-75
2023/04/08 13:46:57;;;;;;;9.52;8.35;;;;;;;;;;4871617;29;20032;-78
2023/04/08 13:49:22;;;;;;;8.25;7.50;;;;;;;;;;4871781;29;20447;-76
2023/04/08 13:51:48;;;;;;;7.10;6.50;;;;;;;;;;4871398;29;20116;-76
2023/04/08 13:54:13;;;;;;;7.70;6.93;;;;;;;;;;4871746;29;20049;-77
2023/04/08 13:56:38;;;;;;;13.02;7.78;;;;;;;;;;4870769;29;20501;-77
2023/04/08 13:59:04;;;;;;;8.35;7.38;;;;;;;;;;4870727;29;20807;-77
2023/04/08 14:01:29;;;;;;;8.20;7.40;;;;;;;;;;4869251;29;20033;-77
2023/04/08 14:03:55;;;;;;;7.80;7.07;;;;;;;;;;4869986;29;20043;-77
2023/04/08 14:06:20;;;;;;;7.00;6.50;;;;;;;;;;4867904;29;20059;-77
2023/04/08 14:08:45;;;;;;;10.48;7.35;;;;;;;;;;4863570;29;20055;-76
2023/04/08 14:11:11;;;;;;;6.28;5.78;;;;;;;;;;4873917;29;20021;-76
2023/04/08 14:13:37;;;;;;;7.55;6.85;;;;;;;;;;4872869;29;20037;-76
2023/04/08 14:16:02;;;;;;;7.25;6.60;;;;;;;;;;4870154;29;20037;-77
2023/04/08 14:18:28;;;;;;;6.88;6.38;;;;;;;;;;4864828;29;20424;-77